createdAt,value
2023-08-17T00:01:46.067Z,100.00
2023-08-17T00:04:14.294Z,100.00
2023-08-17T00:06:42.170Z,100.00
2023-08-17T00:09:08.986Z,100.00
2023-08-17T00:11:35.860Z,100.00
2023-08-17T00:14:02.875Z,100.00
2023-08-17T00:16:30.353Z,100.00
2023-08-17T00:18:57.152Z,100.00
2023-08-17T00:21:24.207Z,100.00
2023-08-17T00:23:51.000Z,100.00
2023-08-17T00:26:17.689Z,100.00
2023-08-17T00:28:45.445Z,100.00
2023-08-17T00:31:12.362Z,100.00
2023-08-17T00:33:39.108Z,100.00
2023-08-17T00:36:06.069Z,100.00
2023-08-17T00:38:33.878Z,100.00
2023-08-17T00:41:00.639Z,100.00
2023-08-17T00:43:28.575Z,100.00
2023-08-17T00:45:55.518Z,100.00
2023-08-17T00:48:22.352Z,100.00
2023-08-17T00:50:50.986Z,100.00
2023-08-17T00:53:17.791Z,100.00
2023-08-17T00:55:44.558Z,100.00
2023-08-17T00:58:11.486Z,100.00
2023-08-17T01:00:38.544Z,100.00
2023-08-17T01:03:05.582Z,100.00
2023-08-17T01:05:34.126Z,100.00
2023-08-17T01:08:01.319Z,100.00
2023-08-17T01:10:33.087Z,100.00
2023-08-17T01:13:21.279Z,100.00
2023-08-17T01:15:53.974Z,100.00
2023-08-17T01:18:34.582Z,100.00
2023-08-17T01:21:01.368Z,100.00
2023-08-17T01:23:28.127Z,100.00
2023-08-17T01:25:55.099Z,100.00
2023-08-17T01:28:21.914Z,100.00
2023-08-17T01:30:55.205Z,100.00
2023-08-17T01:33:25.700Z,100.00
2023-08-17T01:36:12.577Z,100.00
2023-08-17T01:38:39.377Z,100.00
2023-08-17T01:41:06.189Z,100.00
2023-08-17T01:43:33.037Z,100.00
2023-08-17T01:46:01.449Z,100.00
2023-08-17T01:48:28.170Z,100.00
2023-08-17T01:50:55.035Z,100.00
2023-08-17T01:53:21.872Z,100.00
2023-08-17T01:55:48.632Z,100.00
2023-08-17T01:58:15.401Z,100.00
2023-08-17T02:00:42.461Z,100.00
2023-08-17T02:03:09.400Z,100.00
2023-08-17T02:05:37.259Z,100.00
2023-08-17T02:08:04.329Z,100.00
2023-08-17T02:10:32.141Z,100.00
2023-08-17T02:13:05.264Z,100.00
2023-08-17T02:15:40.528Z,100.00
2023-08-17T02:18:08.417Z,100.00
2023-08-17T02:20:35.395Z,100.00
2023-08-17T02:23:02.577Z,100.00
2023-08-17T02:25:36.454Z,100.00
2023-08-17T02:28:04.880Z,100.00
2023-08-17T02:30:31.723Z,100.00
2023-08-17T02:32:59.003Z,100.00
2023-08-17T02:35:25.876Z,100.00
2023-08-17T02:37:52.710Z,100.00
2023-08-17T02:40:19.615Z,100.00
2023-08-17T02:42:46.333Z,100.00
2023-08-17T02:45:13.214Z,100.00
2023-08-17T02:47:40.012Z,100.00
2023-08-17T02:50:07.248Z,100.00
2023-08-17T02:53:01.052Z,100.00
2023-08-17T02:55:45.695Z,100.00
2023-08-17T02:58:12.349Z,100.00
2023-08-17T03:00:39.010Z,100.00
2023-08-17T03:03:05.731Z,100.00
2023-08-17T03:05:32.401Z,100.00
2023-08-17T03:07:59.023Z,100.00
2023-08-17T03:10:26.269Z,100.00
2023-08-17T03:12:53.016Z,100.00
2023-08-17T03:15:19.667Z,100.00
2023-08-17T03:17:46.333Z,100.00
2023-08-17T03:20:13.324Z,100.00
2023-08-17T03:22:40.079Z,100.00
2023-08-17T03:25:07.362Z,100.00
2023-08-17T03:27:34.096Z,100.00
2023-08-17T03:30:00.765Z,100.00
2023-08-17T03:32:27.446Z,100.00
2023-08-17T03:34:54.098Z,100.00
2023-08-17T03:37:20.808Z,100.00
2023-08-17T03:39:47.420Z,100.00
2023-08-17T03:42:14.071Z,100.00
2023-08-17T03:44:40.682Z,100.00
2023-08-17T03:47:07.346Z,100.00
2023-08-17T03:49:34.056Z,100.00
2023-08-17T03:52:00.697Z,100.00
2023-08-17T03:54:27.315Z,100.00
2023-08-17T03:56:54.103Z,100.00
2023-08-17T03:59:20.772Z,100.00
2023-08-17T04:01:47.871Z,100.00
2023-08-17T04:04:14.613Z,100.00
2023-08-17T04:06:42.086Z,100.00
2023-08-17T04:09:08.772Z,100.00
2023-08-17T04:11:38.582Z,100.00
2023-08-17T04:14:05.263Z,100.00
2023-08-17T04:16:31.980Z,100.00
2023-08-17T04:18:58.646Z,100.00
2023-08-17T04:21:25.584Z,100.00
2023-08-17T04:23:52.196Z,100.00
2023-08-17T04:26:18.937Z,100.00
2023-08-17T04:28:45.633Z,100.00
2023-08-17T04:31:12.461Z,100.00
2023-08-17T04:33:39.115Z,100.00
2023-08-17T04:36:05.843Z,100.00
2023-08-17T04:38:32.461Z,100.00
2023-08-17T04:40:59.279Z,100.00
2023-08-17T04:43:25.908Z,100.00
2023-08-17T04:45:52.641Z,100.00
2023-08-17T04:48:19.311Z,100.00
2023-08-17T04:50:46.053Z,100.00
2023-08-17T04:53:12.913Z,100.00
2023-08-17T04:55:39.651Z,100.00
2023-08-17T04:58:06.266Z,100.00
2023-08-17T05:00:32.892Z,100.00
2023-08-17T05:02:59.726Z,100.00
2023-08-17T05:05:26.722Z,100.00
2023-08-17T05:07:53.835Z,100.00
2023-08-17T05:10:20.504Z,100.00
2023-08-17T05:12:47.882Z,100.00
2023-08-17T05:15:14.588Z,100.00
2023-08-17T05:17:41.471Z,100.00
2023-08-17T05:20:09.400Z,100.00
2023-08-17T05:22:36.044Z,100.00
2023-08-17T05:25:02.920Z,100.00
2023-08-17T05:27:29.553Z,100.00
2023-08-17T05:29:56.292Z,100.00
2023-08-17T05:32:23.117Z,100.00
2023-08-17T05:34:49.759Z,100.00
2023-08-17T05:37:16.714Z,100.00
2023-08-17T05:39:43.419Z,100.00
2023-08-17T05:42:11.027Z,100.00
2023-08-17T05:44:37.653Z,100.00
2023-08-17T05:47:04.460Z,100.00
2023-08-17T05:49:31.085Z,100.00
2023-08-17T05:51:57.731Z,100.00
2023-08-17T05:54:24.499Z,100.00
2023-08-17T05:56:51.114Z,100.00
2023-08-17T05:59:17.755Z,100.00
2023-08-17T06:01:44.407Z,100.00
2023-08-17T06:04:11.014Z,100.00
2023-08-17T06:06:37.637Z,100.00
2023-08-17T06:09:04.494Z,100.00
2023-08-17T06:11:31.104Z,100.00
2023-08-17T06:13:57.775Z,100.00
2023-08-17T06:16:24.488Z,100.00
2023-08-17T06:18:51.290Z,100.00
2023-08-17T06:21:17.963Z,100.00
2023-08-17T06:23:44.914Z,100.00
2023-08-17T06:26:11.538Z,100.00
2023-08-17T06:28:38.153Z,100.00
2023-08-17T06:31:05.014Z,100.00
2023-08-17T06:33:31.649Z,100.00
2023-08-17T06:35:58.263Z,100.00
2023-08-17T06:38:24.886Z,100.00
2023-08-17T06:40:52.750Z,100.00
2023-08-17T06:43:19.656Z,100.00
2023-08-17T06:45:46.339Z,100.00
2023-08-17T06:48:12.994Z,100.00
2023-08-17T06:50:39.686Z,100.00
2023-08-17T06:53:06.413Z,100.00
2023-08-17T06:55:33.044Z,100.00
2023-08-17T06:57:59.878Z,100.00
2023-08-17T07:00:27.238Z,100.00
2023-08-17T07:02:56.331Z,100.00
2023-08-17T07:05:24.994Z,100.00
2023-08-17T07:07:51.819Z,100.00
2023-08-17T07:10:18.463Z,100.00
2023-08-17T07:12:45.096Z,100.00
2023-08-17T07:15:11.954Z,100.00
2023-08-17T07:17:38.791Z,100.00
2023-08-17T07:20:16.338Z,100.00
2023-08-17T07:22:43.963Z,100.00
2023-08-17T07:25:10.625Z,100.00
2023-08-17T07:27:37.330Z,100.00
2023-08-17T07:30:04.379Z,100.00
2023-08-17T07:32:31.128Z,100.00
2023-08-17T07:34:57.899Z,100.00
2023-08-17T07:37:25.050Z,100.00
2023-08-17T07:39:52.036Z,100.00
2023-08-17T07:42:18.677Z,100.00
2023-08-17T07:44:45.360Z,100.00
2023-08-17T07:47:11.970Z,100.00
2023-08-17T07:49:38.606Z,100.00
2023-08-17T07:52:05.304Z,100.00
2023-08-17T07:54:32.001Z,100.00
2023-08-17T07:56:58.620Z,100.00
2023-08-17T07:59:25.410Z,100.00
2023-08-17T08:01:52.135Z,100.00
2023-08-17T08:04:18.783Z,100.00
2023-08-17T08:06:45.482Z,100.00
2023-08-17T08:09:12.221Z,100.00
2023-08-17T08:11:38.962Z,100.00
2023-08-17T08:14:05.690Z,100.00
2023-08-17T08:16:32.318Z,100.00
2023-08-17T08:18:59.151Z,100.00
2023-08-17T08:21:25.920Z,100.00
2023-08-17T08:23:52.562Z,100.00
2023-08-17T08:26:19.219Z,100.00
2023-08-17T08:28:46.372Z,100.00
2023-08-17T08:31:13.082Z,100.00
2023-08-17T08:33:39.788Z,100.00
2023-08-17T08:36:07.527Z,100.00
2023-08-17T08:38:34.168Z,100.00
2023-08-17T08:41:00.925Z,100.00
2023-08-17T08:43:27.563Z,100.00
2023-08-17T08:45:54.268Z,100.00
2023-08-17T08:48:21.046Z,100.00
2023-08-17T08:50:48.884Z,100.00
2023-08-17T08:53:15.805Z,100.00
2023-08-17T08:55:52.523Z,100.00
2023-08-17T08:58:19.131Z,100.00
2023-08-17T09:00:47.485Z,100.00
2023-08-17T09:03:15.821Z,100.00
2023-08-17T09:05:42.454Z,100.00
2023-08-17T09:08:09.955Z,100.00
2023-08-17T09:10:38.910Z,100.00
2023-08-17T09:13:05.928Z,100.00
2023-08-17T09:15:32.524Z,100.00
2023-08-17T09:17:59.266Z,100.00
2023-08-17T09:20:38.994Z,100.00
2023-08-17T09:23:05.944Z,100.00
2023-08-17T09:25:32.672Z,100.00
2023-08-17T09:27:59.303Z,100.00
2023-08-17T09:30:25.972Z,100.00
2023-08-17T09:32:52.705Z,100.00
2023-08-17T09:35:19.378Z,100.00
2023-08-17T09:37:46.011Z,100.00
2023-08-17T09:40:12.786Z,100.00
2023-08-17T09:42:39.398Z,100.00
2023-08-17T09:45:06.806Z,100.00
2023-08-17T09:47:33.611Z,100.00
2023-08-17T09:50:00.373Z,100.00
2023-08-17T09:52:27.463Z,100.00
2023-08-17T09:54:55.847Z,100.00
2023-08-17T09:57:23.281Z,100.00
2023-08-17T09:59:54.826Z,100.00
2023-08-17T10:02:24.839Z,100.00
2023-08-17T10:04:54.102Z,100.00
2023-08-17T10:07:21.667Z,100.00
2023-08-17T10:09:56.810Z,100.00
2023-08-17T10:12:25.005Z,100.00
2023-08-17T10:15:03.875Z,100.00
2023-08-17T10:17:35.347Z,100.00
2023-08-17T10:20:02.115Z,100.00
2023-08-17T10:22:35.208Z,100.00
2023-08-17T10:25:02.051Z,100.00
2023-08-17T10:27:28.765Z,100.00
2023-08-17T10:29:55.478Z,100.00
2023-08-17T10:32:25.738Z,100.00
2023-08-17T10:34:52.968Z,100.00
2023-08-17T10:37:20.409Z,100.00
2023-08-17T10:39:48.092Z,100.00
2023-08-17T10:42:20.696Z,100.00
2023-08-17T10:44:48.866Z,100.00
2023-08-17T10:47:36.835Z,100.00
2023-08-17T10:50:10.918Z,100.00
2023-08-17T10:52:38.966Z,100.00
2023-08-17T10:55:06.863Z,100.00
2023-08-17T10:57:36.810Z,100.00
2023-08-17T11:00:25.714Z,100.00
2023-08-17T11:02:56.997Z,100.00
2023-08-17T11:05:41.600Z,100.00
2023-08-17T11:08:12.186Z,100.00
2023-08-17T11:10:39.597Z,100.00
2023-08-17T11:13:08.103Z,100.00
2023-08-17T11:15:46.356Z,100.00
2023-08-17T11:18:13.238Z,100.00
2023-08-17T11:20:41.316Z,100.00
2023-08-17T11:23:09.007Z,100.00
2023-08-17T11:25:36.079Z,100.00
2023-08-17T11:28:02.984Z,100.00
2023-08-17T11:30:29.908Z,100.00
2023-08-17T11:32:58.678Z,98.59
2023-08-17T11:35:25.800Z,98.93
2023-08-17T11:37:52.422Z,98.78
2023-08-17T11:40:19.073Z,99.32
2023-08-17T11:42:46.164Z,99.01
2023-08-17T11:45:13.096Z,98.89
2023-08-17T11:47:44.440Z,99.25
2023-08-17T11:50:20.671Z,99.52
2023-08-17T11:52:48.421Z,99.16
2023-08-17T11:55:18.634Z,99.21
2023-08-17T11:57:45.398Z,98.44
2023-08-17T12:00:23.730Z,98.44
2023-08-17T12:02:51.343Z,98.94
2023-08-17T12:05:24.390Z,98.28
2023-08-17T12:07:51.785Z,98.91
2023-08-17T12:10:19.574Z,99.02
2023-08-17T12:12:48.728Z,99.78
2023-08-17T12:15:17.067Z,99.81
2023-08-17T12:17:47.725Z,99.42
2023-08-17T12:20:18.782Z,98.39
2023-08-17T12:22:45.823Z,98.54
2023-08-17T12:25:12.445Z,97.59
2023-08-17T12:27:39.230Z,97.13
2023-08-17T12:30:07.136Z,97.69
2023-08-17T12:32:33.845Z,97.50
2023-08-17T12:35:00.571Z,97.83
2023-08-17T12:37:27.182Z,98.22
2023-08-17T12:39:53.899Z,98.31
2023-08-17T12:42:20.584Z,98.29
2023-08-17T12:44:47.246Z,96.73
2023-08-17T12:47:13.926Z,97.34
2023-08-17T12:49:40.799Z,96.78
2023-08-17T12:52:07.488Z,96.60
2023-08-17T12:54:34.186Z,97.03
2023-08-17T12:57:02.834Z,96.71
2023-08-17T12:59:30.118Z,95.98
2023-08-17T13:01:56.867Z,95.85
2023-08-17T13:04:23.478Z,95.74
2023-08-17T13:06:52.132Z,95.18
2023-08-17T13:09:20.168Z,95.82
2023-08-17T13:11:47.349Z,96.23
2023-08-17T13:14:15.635Z,96.00
2023-08-17T13:16:42.385Z,95.98
2023-08-17T13:19:09.073Z,95.53
2023-08-17T13:21:35.978Z,95.62
2023-08-17T13:24:04.443Z,95.80
2023-08-17T13:26:31.974Z,95.44
2023-08-17T13:28:58.620Z,95.79
2023-08-17T13:31:25.400Z,96.23
2023-08-17T13:33:52.316Z,95.69
2023-08-17T13:36:19.682Z,96.30
2023-08-17T13:38:47.121Z,96.79
2023-08-17T13:41:14.078Z,96.55
2023-08-17T13:43:41.111Z,96.79
2023-08-17T13:46:07.897Z,96.52
2023-08-17T13:48:34.603Z,96.90
2023-08-17T13:51:01.211Z,96.37
2023-08-17T13:53:27.884Z,96.90
2023-08-17T13:55:55.042Z,97.08
2023-08-17T13:58:21.688Z,97.14
2023-08-17T14:00:48.345Z,96.50
2023-08-17T14:03:15.049Z,96.59
2023-08-17T14:05:41.825Z,96.73
2023-08-17T14:08:08.911Z,96.99
2023-08-17T14:10:40.285Z,97.46
2023-08-17T14:13:07.268Z,97.52
2023-08-17T14:15:34.053Z,96.58
2023-08-17T14:18:00.799Z,96.76
2023-08-17T14:20:28.080Z,96.96
2023-08-17T14:22:54.806Z,97.48
2023-08-17T14:25:21.441Z,97.41
2023-08-17T14:27:48.045Z,97.62
2023-08-17T14:30:14.757Z,97.37
2023-08-17T14:32:41.421Z,97.41
2023-08-17T14:35:12.405Z,97.89
2023-08-17T14:37:39.626Z,96.33
2023-08-17T14:40:06.963Z,96.42
2023-08-17T14:42:33.669Z,96.46
2023-08-17T14:45:06.922Z,95.77
2023-08-17T14:47:34.170Z,95.71
2023-08-17T14:50:00.854Z,96.76
2023-08-17T14:52:33.644Z,96.80
2023-08-17T14:55:00.922Z,96.87
2023-08-17T14:57:27.953Z,96.67
2023-08-17T14:59:54.971Z,97.02
2023-08-17T15:02:22.253Z,97.08
2023-08-17T15:04:49.008Z,97.57
2023-08-17T15:07:15.687Z,97.51
2023-08-17T15:09:42.381Z,98.28
2023-08-17T15:12:09.126Z,98.21
2023-08-17T15:14:35.826Z,98.08
2023-08-17T15:17:02.484Z,98.66
2023-08-17T15:19:39.717Z,98.59
2023-08-17T15:22:07.418Z,97.84
2023-08-17T15:24:34.094Z,98.18
2023-08-17T15:27:00.710Z,97.81
2023-08-17T15:29:27.371Z,97.56
2023-08-17T15:31:54.018Z,97.84
2023-08-17T15:34:20.653Z,97.47
2023-08-17T15:36:47.464Z,97.56
2023-08-17T15:39:14.146Z,97.78
2023-08-17T15:41:40.781Z,98.05
2023-08-17T15:44:07.423Z,98.13
2023-08-17T15:46:34.063Z,98.24
2023-08-17T15:49:00.695Z,98.20
2023-08-17T15:51:28.940Z,98.37
2023-08-17T15:53:56.147Z,98.21
2023-08-17T15:56:22.820Z,98.37
2023-08-17T15:58:49.602Z,98.33
2023-08-17T16:01:16.341Z,97.62
2023-08-17T16:03:43.159Z,96.99
2023-08-17T16:06:09.872Z,96.60
2023-08-17T16:08:48.675Z,96.67
2023-08-17T16:11:16.247Z,96.03
2023-08-17T16:18:08.118Z,96.89
2023-08-17T16:20:34.844Z,96.47
2023-08-17T16:23:01.792Z,96.79
2023-08-17T16:25:30.343Z,96.09
2023-08-17T16:27:57.367Z,95.74
2023-08-17T16:30:24.403Z,95.91
2023-08-17T16:32:53.280Z,95.71
2023-08-17T16:35:20.080Z,95.66
2023-08-17T16:37:46.906Z,95.97
2023-08-17T16:40:24.169Z,95.90
2023-08-17T16:43:00.943Z,96.53
2023-08-17T16:45:28.263Z,96.74
2023-08-17T16:47:55.039Z,97.11
2023-08-17T16:50:21.817Z,96.84
2023-08-17T16:52:48.463Z,97.17
2023-08-17T16:55:15.317Z,97.62
2023-08-17T16:57:42.175Z,97.45
2023-08-17T17:00:09.982Z,97.96
2023-08-17T17:02:36.846Z,97.86
2023-08-17T17:05:03.761Z,98.18
2023-08-17T17:07:30.550Z,98.48
2023-08-17T17:09:57.281Z,98.57
2023-08-17T17:12:23.952Z,98.59
2023-08-17T17:14:50.707Z,98.03
2023-08-17T17:17:17.504Z,98.12
2023-08-17T17:19:44.240Z,98.51
2023-08-17T17:22:11.632Z,98.32
2023-08-17T17:24:38.417Z,98.76
2023-08-17T17:27:05.112Z,98.71
2023-08-17T17:29:31.847Z,99.05
2023-08-17T17:31:58.639Z,98.95
2023-08-17T17:34:25.330Z,98.92
2023-08-17T17:36:52.047Z,98.86
2023-08-17T17:39:18.772Z,99.25
2023-08-17T17:41:45.461Z,98.51
2023-08-17T17:44:12.203Z,97.30
2023-08-17T17:46:38.980Z,96.40
2023-08-17T17:49:05.932Z,96.91
2023-08-17T17:51:32.585Z,96.92
2023-08-17T17:53:59.283Z,96.64
2023-08-17T17:56:42.405Z,96.52
2023-08-17T17:59:11.156Z,96.60
2023-08-17T18:01:38.491Z,96.71
2023-08-17T18:04:05.378Z,96.71
2023-08-17T18:06:33.894Z,96.53
2023-08-17T18:09:00.875Z,96.28
2023-08-17T18:11:27.606Z,95.18
2023-08-17T18:13:54.353Z,95.95
2023-08-17T18:16:21.178Z,95.75
2023-08-17T18:18:47.924Z,95.92
2023-08-17T18:21:14.753Z,95.96
2023-08-17T18:23:41.481Z,95.98
2023-08-17T18:26:08.257Z,95.82
2023-08-17T18:28:34.972Z,95.96
2023-08-17T18:31:01.631Z,96.38
2023-08-17T18:33:28.425Z,96.54
2023-08-17T18:35:55.351Z,96.40
2023-08-17T18:38:23.381Z,96.70
2023-08-17T18:40:53.055Z,96.53
2023-08-17T18:43:21.004Z,96.88
2023-08-17T18:45:47.695Z,96.95
2023-08-17T18:48:14.442Z,96.92
2023-08-17T18:50:41.710Z,97.22
2023-08-17T18:53:08.531Z,97.86
2023-08-17T18:55:35.198Z,97.83
2023-08-17T18:58:02.933Z,98.08
2023-08-17T19:00:29.670Z,98.43
2023-08-17T19:02:56.429Z,98.56
2023-08-17T19:05:23.234Z,98.25
2023-08-17T19:07:51.020Z,98.11
2023-08-17T19:10:19.615Z,98.60
2023-08-17T19:12:46.460Z,99.13
2023-08-17T19:15:13.451Z,99.79
2023-08-17T19:17:40.188Z,100.00
2023-08-17T19:20:09.511Z,100.00
2023-08-17T19:22:36.881Z,100.00
2023-08-17T19:25:04.572Z,100.00
2023-08-17T19:27:31.305Z,100.00
2023-08-17T19:29:58.075Z,100.00
2023-08-17T19:32:24.864Z,100.00
2023-08-17T19:34:51.591Z,100.00
2023-08-17T19:37:18.269Z,100.00
2023-08-17T19:39:45.079Z,100.00
2023-08-17T19:42:11.810Z,100.00
2023-08-17T19:44:38.483Z,100.00
2023-08-17T19:47:06.770Z,100.00
2023-08-17T19:49:33.492Z,100.00
2023-08-17T19:52:00.321Z,100.00
2023-08-17T19:54:27.019Z,100.00
2023-08-17T19:56:54.699Z,100.00
2023-08-17T19:59:21.366Z,100.00
2023-08-17T20:01:49.725Z,100.00
2023-08-17T20:04:16.494Z,100.00
2023-08-17T20:06:43.199Z,100.00
2023-08-17T20:09:09.958Z,100.00
2023-08-17T20:11:36.766Z,100.00
2023-08-17T20:14:03.557Z,100.00
2023-08-17T20:16:30.295Z,100.00
2023-08-17T20:18:57.006Z,100.00
2023-08-17T20:21:23.813Z,100.00
2023-08-17T20:23:50.715Z,100.00
2023-08-17T20:26:18.551Z,100.00
2023-08-17T20:28:45.277Z,100.00
2023-08-17T20:31:12.054Z,100.00
2023-08-17T20:33:39.419Z,100.00
2023-08-17T20:36:06.906Z,100.00
2023-08-17T20:38:33.653Z,100.00
2023-08-17T20:41:03.232Z,100.00
2023-08-17T20:43:29.939Z,100.00
2023-08-17T20:45:57.140Z,100.00
2023-08-17T20:48:23.808Z,100.00
2023-08-17T20:50:52.074Z,100.00
2023-08-17T20:53:18.808Z,100.00
2023-08-17T20:55:45.574Z,100.00
2023-08-17T20:58:12.278Z,100.00
2023-08-17T21:00:38.925Z,100.00
2023-08-17T21:03:06.137Z,100.00
2023-08-17T21:05:33.104Z,100.00
2023-08-17T21:07:59.845Z,100.00
2023-08-17T21:10:26.995Z,100.00
2023-08-17T21:12:53.638Z,100.00
2023-08-17T21:15:20.380Z,100.00
2023-08-17T21:17:47.450Z,100.00
2023-08-17T21:20:14.361Z,100.00
2023-08-17T21:22:47.351Z,100.00
2023-08-17T21:25:14.089Z,100.00
2023-08-17T21:27:40.879Z,100.00
2023-08-17T21:30:08.291Z,100.00
2023-08-17T21:32:35.005Z,100.00
2023-08-17T21:35:01.660Z,100.00
2023-08-17T21:37:29.314Z,100.00
2023-08-17T21:39:56.214Z,100.00
2023-08-17T21:42:23.851Z,100.00
2023-08-17T21:44:50.976Z,100.00
2023-08-17T21:47:17.723Z,100.00
2023-08-17T21:49:46.724Z,100.00
2023-08-17T21:52:13.392Z,100.00
2023-08-17T21:54:40.195Z,100.00
2023-08-17T21:57:06.847Z,100.00
2023-08-17T21:59:33.521Z,100.00
2023-08-17T22:02:00.273Z,100.00
2023-08-17T22:04:27.019Z,100.00
2023-08-17T22:06:53.802Z,100.00
2023-08-17T22:09:20.546Z,100.00
2023-08-17T22:11:47.223Z,100.00
2023-08-17T22:14:13.960Z,100.00
2023-08-17T22:16:40.715Z,100.00
2023-08-17T22:19:07.420Z,100.00
2023-08-17T22:21:34.224Z,100.00
2023-08-17T22:24:01.206Z,100.00
2023-08-17T22:26:27.957Z,100.00
2023-08-17T22:28:54.759Z,100.00
2023-08-17T22:31:21.491Z,100.00
2023-08-17T22:33:48.276Z,100.00
2023-08-17T22:36:15.048Z,100.00
2023-08-17T22:38:41.801Z,100.00
2023-08-17T22:41:08.497Z,100.00
2023-08-17T22:43:35.242Z,100.00
2023-08-17T22:46:03.699Z,100.00
2023-08-17T22:48:30.538Z,100.00
2023-08-17T22:50:57.241Z,100.00
2023-08-17T22:53:24.026Z,100.00
2023-08-17T22:55:51.006Z,100.00
2023-08-17T22:58:17.747Z,100.00
2023-08-17T23:00:44.519Z,100.00
2023-08-17T23:03:11.263Z,100.00
2023-08-17T23:05:37.950Z,100.00
2023-08-17T23:08:05.461Z,100.00
2023-08-17T23:10:32.199Z,100.00
2023-08-17T23:12:58.895Z,100.00
2023-08-17T23:15:25.628Z,100.00
2023-08-17T23:17:52.443Z,100.00
2023-08-17T23:20:19.208Z,100.00
2023-08-17T23:22:45.950Z,100.00
2023-08-17T23:25:12.665Z,100.00
2023-08-17T23:27:39.958Z,100.00
2023-08-17T23:30:07.321Z,100.00
2023-08-17T23:32:34.141Z,100.00
2023-08-17T23:35:00.956Z,100.00
2023-08-17T23:37:28.046Z,100.00
2023-08-17T23:39:55.059Z,100.00
2023-08-17T23:42:21.784Z,100.00
2023-08-17T23:44:48.523Z,100.00
2023-08-17T23:47:15.198Z,100.00
2023-08-17T23:49:41.941Z,100.00
2023-08-17T23:52:08.637Z,100.00
2023-08-17T23:54:35.346Z,100.00
2023-08-17T23:57:02.088Z,100.00
2023-08-17T23:59:28.754Z,100.00
